createdAt,value
2022-11-27T00:00:12.024Z,4.26
2022-11-27T00:01:12.003Z,4.30
2022-11-27T00:02:12.053Z,4.23
2022-11-27T00:03:12.137Z,4.24
2022-11-27T00:04:12.083Z,4.22
2022-11-27T00:05:11.937Z,4.29
2022-11-27T00:06:11.910Z,4.20
2022-11-27T00:07:11.953Z,4.14
2022-11-27T00:08:11.873Z,4.23
2022-11-27T00:09:11.869Z,4.09
2022-11-27T00:10:11.878Z,4.18
2022-11-27T00:11:11.816Z,4.09
2022-11-27T00:12:11.799Z,4.15
2022-11-27T00:13:11.782Z,4.20
2022-11-27T00:14:11.811Z,4.22
2022-11-27T00:15:16.994Z,4.20
2022-11-27T00:16:11.758Z,4.20
2022-11-27T00:17:11.700Z,4.26
2022-11-27T00:18:11.677Z,4.22
2022-11-27T00:19:11.669Z,4.16
2022-11-27T00:20:11.679Z,4.20
2022-11-27T00:21:11.625Z,4.20
2022-11-27T00:22:11.601Z,4.16
2022-11-27T00:23:11.611Z,4.15
2022-11-27T00:24:11.570Z,4.20
2022-11-27T00:25:11.554Z,4.27
2022-11-27T00:26:11.525Z,4.29
2022-11-27T00:27:11.508Z,4.30
2022-11-27T00:28:11.485Z,4.24
2022-11-27T00:29:11.469Z,4.26
2022-11-27T00:30:11.451Z,4.37
2022-11-27T00:31:11.470Z,4.34
2022-11-27T00:32:11.418Z,4.30
2022-11-27T00:33:11.392Z,4.30
2022-11-27T00:34:11.372Z,4.37
2022-11-27T00:35:11.366Z,4.29
2022-11-27T00:36:11.332Z,4.26
2022-11-27T00:37:11.330Z,4.32
2022-11-27T00:38:11.301Z,4.30
2022-11-27T00:39:11.279Z,4.30
2022-11-27T00:40:11.314Z,4.29
2022-11-27T00:41:11.239Z,4.20
2022-11-27T00:42:11.222Z,4.32
2022-11-27T00:43:11.206Z,4.36
2022-11-27T00:44:11.183Z,4.42
2022-11-27T00:45:11.167Z,4.36
2022-11-27T00:46:11.211Z,4.40
2022-11-27T00:47:11.123Z,4.34
2022-11-27T00:48:11.119Z,4.32
2022-11-27T00:49:11.085Z,4.37
2022-11-27T00:50:11.071Z,4.32
2022-11-27T00:51:11.074Z,4.20
2022-11-27T00:52:11.027Z,4.26
2022-11-27T00:53:11.008Z,4.24
2022-11-27T00:54:10.991Z,4.23
2022-11-27T00:55:10.979Z,4.15
2022-11-27T00:56:10.947Z,4.14
2022-11-27T00:57:10.938Z,4.12
2022-11-27T00:58:10.906Z,4.16
2022-11-27T00:59:10.897Z,4.20
2022-11-27T01:00:10.876Z,4.16
2022-11-27T01:01:10.856Z,4.16
2022-11-27T01:02:10.878Z,4.18
2022-11-27T01:03:10.852Z,4.16
2022-11-27T01:04:10.818Z,4.20
2022-11-27T01:05:10.776Z,4.20
2022-11-27T01:06:10.752Z,4.09
2022-11-27T01:07:10.805Z,4.20
2022-11-27T01:08:10.716Z,4.15
2022-11-27T01:09:10.762Z,3.98
2022-11-27T01:10:10.683Z,3.96
2022-11-27T01:11:10.662Z,4.00
2022-11-27T01:12:10.640Z,3.96
2022-11-27T01:13:10.625Z,4.00
2022-11-27T01:14:10.609Z,3.98
2022-11-27T01:15:10.589Z,3.91
2022-11-27T01:16:10.670Z,3.97
2022-11-27T01:17:10.545Z,3.91
2022-11-27T01:18:10.534Z,3.91
2022-11-27T01:19:10.512Z,3.93
2022-11-27T01:20:10.513Z,3.87
2022-11-27T01:21:10.500Z,3.88
2022-11-27T01:22:10.456Z,3.90
2022-11-27T01:23:10.429Z,3.90
2022-11-27T01:24:10.406Z,3.84
2022-11-27T01:25:10.432Z,3.86
2022-11-27T01:26:10.379Z,3.86
2022-11-27T01:27:10.352Z,3.83
2022-11-27T01:28:10.375Z,3.86
2022-11-27T01:29:10.335Z,3.84
2022-11-27T01:30:10.294Z,3.83
2022-11-27T01:31:10.319Z,3.80
2022-11-27T01:32:10.252Z,3.88
2022-11-27T01:33:10.237Z,3.86
2022-11-27T01:34:10.232Z,3.86
2022-11-27T01:35:10.198Z,3.90
2022-11-27T01:36:10.177Z,3.75
2022-11-27T01:37:10.157Z,3.78
2022-11-27T01:38:10.135Z,3.68
2022-11-27T01:39:10.145Z,3.66
2022-11-27T01:40:10.104Z,3.69
2022-11-27T01:41:10.132Z,3.72
2022-11-27T01:42:10.068Z,3.73
2022-11-27T01:43:10.040Z,3.65
2022-11-27T01:44:10.028Z,3.68
2022-11-27T01:45:10.024Z,3.68
2022-11-27T01:46:10.044Z,3.65
2022-11-27T01:47:09.990Z,3.68
2022-11-27T01:48:09.945Z,3.68
2022-11-27T01:49:09.931Z,3.69
2022-11-27T01:50:09.911Z,3.70
2022-11-27T01:51:09.892Z,3.70
2022-11-27T01:52:09.941Z,3.69
2022-11-27T01:53:09.844Z,3.72
2022-11-27T01:54:09.841Z,3.70
2022-11-27T01:55:09.808Z,3.69
2022-11-27T01:56:09.792Z,3.65
2022-11-27T01:57:09.771Z,3.58
2022-11-27T01:58:09.812Z,3.57
2022-11-27T01:59:09.733Z,3.58
2022-11-27T02:00:09.708Z,3.58
2022-11-27T02:01:09.695Z,3.57
2022-11-27T02:02:09.696Z,3.42
2022-11-27T02:03:09.814Z,3.50
2022-11-27T02:04:09.632Z,3.45
2022-11-27T02:05:09.622Z,3.45
2022-11-27T02:06:09.591Z,3.45
2022-11-27T02:07:09.681Z,3.45
2022-11-27T02:08:09.592Z,3.50
2022-11-27T02:09:09.536Z,3.39
2022-11-27T02:10:09.519Z,3.33
2022-11-27T02:11:09.497Z,3.35
2022-11-27T02:12:09.473Z,3.36
2022-11-27T02:13:09.504Z,3.23
2022-11-27T02:14:09.467Z,3.17
2022-11-27T02:15:09.425Z,3.15
2022-11-27T02:16:11.762Z,3.21
2022-11-27T02:17:09.382Z,3.18
2022-11-27T02:18:09.383Z,3.23
2022-11-27T02:19:09.341Z,3.20
2022-11-27T02:20:09.315Z,3.13
2022-11-27T02:21:09.305Z,3.13
2022-11-27T02:22:09.279Z,3.13
2022-11-27T02:23:09.317Z,3.05
2022-11-27T02:24:09.242Z,3.00
2022-11-27T02:25:09.220Z,3.03
2022-11-27T02:26:09.201Z,2.99
2022-11-27T02:27:09.184Z,2.99
2022-11-27T02:28:09.165Z,2.99
2022-11-27T02:29:09.159Z,3.05
2022-11-27T02:30:09.121Z,3.05
2022-11-27T02:31:09.201Z,2.96
2022-11-27T02:32:09.105Z,2.89
2022-11-27T02:33:09.063Z,2.90
2022-11-27T02:34:09.050Z,2.90
2022-11-27T02:35:09.031Z,2.75
2022-11-27T02:36:09.008Z,2.82
2022-11-27T02:37:08.997Z,2.90
2022-11-27T02:38:08.967Z,2.79
2022-11-27T02:39:08.974Z,2.85
2022-11-27T02:40:08.926Z,2.72
2022-11-27T02:41:08.932Z,2.82
2022-11-27T02:42:08.964Z,2.72
2022-11-27T02:43:08.870Z,2.81
2022-11-27T02:44:08.845Z,2.85
2022-11-27T02:45:08.855Z,2.84
2022-11-27T02:46:08.867Z,2.74
2022-11-27T02:47:08.793Z,2.79
2022-11-27T02:48:08.770Z,2.89
2022-11-27T02:49:08.752Z,2.87
2022-11-27T02:50:08.770Z,2.84
2022-11-27T02:51:08.711Z,2.84
2022-11-27T02:52:08.714Z,2.71
2022-11-27T02:53:08.669Z,2.75
2022-11-27T02:54:08.666Z,2.72
2022-11-27T02:55:08.638Z,2.72
2022-11-27T02:56:08.611Z,2.72
2022-11-27T02:57:08.635Z,2.75
2022-11-27T02:58:08.656Z,2.64
2022-11-27T02:59:08.552Z,2.74
2022-11-27T03:00:08.535Z,2.63
2022-11-27T03:01:08.511Z,2.69
2022-11-27T03:02:08.605Z,2.69
2022-11-27T03:03:08.563Z,2.61
2022-11-27T03:04:08.454Z,2.67
2022-11-27T03:05:08.433Z,2.63
2022-11-27T03:06:08.414Z,2.60
2022-11-27T03:07:08.395Z,2.64
2022-11-27T03:08:08.395Z,2.67
2022-11-27T03:09:08.363Z,2.57
2022-11-27T03:10:08.333Z,2.59
2022-11-27T03:11:08.309Z,2.64
2022-11-27T03:12:08.336Z,2.59
2022-11-27T03:13:08.286Z,2.60
2022-11-27T03:14:08.333Z,2.60
2022-11-27T03:15:08.289Z,2.59
2022-11-27T03:16:08.341Z,2.61
2022-11-27T03:17:08.193Z,2.63
2022-11-27T03:18:08.183Z,2.59
2022-11-27T03:19:08.156Z,2.71
2022-11-27T03:20:08.136Z,2.59
2022-11-27T03:21:08.148Z,2.64
2022-11-27T03:22:08.094Z,2.59
2022-11-27T03:23:08.074Z,2.57
2022-11-27T03:24:08.082Z,2.66
2022-11-27T03:25:08.060Z,2.60
2022-11-27T03:26:08.017Z,2.59
2022-11-27T03:27:07.993Z,2.57
2022-11-27T03:28:07.975Z,2.60
2022-11-27T03:29:07.964Z,2.63
2022-11-27T03:30:08.013Z,2.63
2022-11-27T03:31:07.936Z,2.56
2022-11-27T03:32:07.897Z,2.53
2022-11-27T03:33:07.875Z,2.56
2022-11-27T03:34:07.855Z,2.59
2022-11-27T03:35:07.847Z,2.57
2022-11-27T03:36:07.817Z,2.53
2022-11-27T03:37:07.824Z,2.59
2022-11-27T03:38:07.792Z,2.54
2022-11-27T03:39:07.762Z,2.61
2022-11-27T03:40:07.800Z,2.49
2022-11-27T03:41:07.713Z,2.61
2022-11-27T03:42:07.701Z,2.52
2022-11-27T03:43:07.680Z,2.63
2022-11-27T03:44:07.657Z,2.59
2022-11-27T03:45:07.645Z,2.57
2022-11-27T03:46:07.734Z,2.59
2022-11-27T03:47:07.619Z,2.53
2022-11-27T03:48:07.581Z,2.45
2022-11-27T03:49:07.555Z,2.63
2022-11-27T03:50:07.556Z,2.60
2022-11-27T03:51:07.541Z,2.57
2022-11-27T03:52:07.496Z,2.57
2022-11-27T03:53:07.481Z,2.54
2022-11-27T03:54:07.497Z,2.54
2022-11-27T03:55:07.436Z,2.61
2022-11-27T03:56:10.222Z,2.56
2022-11-27T03:57:07.406Z,2.45
2022-11-27T03:58:07.407Z,2.48
2022-11-27T03:59:07.356Z,2.41
2022-11-27T04:00:07.361Z,2.42
2022-11-27T04:01:07.317Z,2.42
2022-11-27T04:02:07.433Z,2.45
2022-11-27T04:03:07.314Z,2.46
2022-11-27T04:04:07.335Z,2.42
2022-11-27T04:05:07.235Z,2.42
2022-11-27T04:06:07.212Z,2.49
2022-11-27T04:07:07.214Z,2.46
2022-11-27T04:08:07.174Z,2.41
2022-11-27T04:09:07.208Z,2.39
2022-11-27T04:10:07.133Z,2.38
2022-11-27T04:11:07.124Z,2.45
2022-11-27T04:12:07.092Z,2.53
2022-11-27T04:13:07.075Z,2.53
2022-11-27T04:14:07.057Z,2.49
2022-11-27T04:15:07.040Z,2.53
2022-11-27T04:16:07.099Z,2.53
2022-11-27T04:17:06.996Z,2.59
2022-11-27T04:18:07.052Z,2.60
2022-11-27T04:19:06.957Z,2.53
2022-11-27T04:20:06.978Z,2.57
2022-11-27T04:21:06.915Z,2.54
2022-11-27T04:22:06.919Z,2.61
2022-11-27T04:23:06.874Z,2.60
2022-11-27T04:24:06.853Z,2.61
2022-11-27T04:25:06.836Z,2.63
2022-11-27T04:26:06.840Z,2.57
2022-11-27T04:27:06.793Z,2.56
2022-11-27T04:28:06.773Z,2.43
2022-11-27T04:29:06.751Z,2.52
2022-11-27T04:30:06.734Z,2.46
2022-11-27T04:31:06.787Z,2.39
2022-11-27T04:32:06.690Z,2.49
2022-11-27T04:33:06.673Z,2.43
2022-11-27T04:34:06.734Z,2.48
2022-11-27T04:35:06.631Z,2.49
2022-11-27T04:36:06.656Z,2.53
2022-11-27T04:37:06.598Z,2.46
2022-11-27T04:38:06.572Z,2.41
2022-11-27T04:39:06.560Z,2.53
2022-11-27T04:40:06.531Z,2.53
2022-11-27T04:41:06.518Z,2.53
2022-11-27T04:42:06.492Z,2.43
2022-11-27T04:43:06.470Z,2.39
2022-11-27T04:44:06.446Z,2.52
2022-11-27T04:45:06.431Z,2.39
2022-11-27T04:46:06.474Z,2.34
2022-11-27T04:47:06.463Z,2.36
2022-11-27T04:48:06.427Z,2.41
2022-11-27T04:49:06.348Z,2.41
2022-11-27T04:50:06.402Z,2.48
2022-11-27T04:51:06.314Z,2.41
2022-11-27T04:52:06.326Z,2.45
2022-11-27T04:53:06.271Z,2.46
2022-11-27T04:54:06.246Z,2.53
2022-11-27T04:55:06.227Z,2.48
2022-11-27T04:56:06.210Z,2.49
2022-11-27T04:57:06.248Z,2.36
2022-11-27T04:58:06.167Z,2.39
2022-11-27T04:59:06.183Z,2.46
2022-11-27T05:00:06.167Z,2.45
2022-11-27T05:01:06.139Z,2.38
2022-11-27T05:02:06.089Z,2.31
2022-11-27T05:03:06.178Z,2.27
2022-11-27T05:04:06.045Z,2.34
2022-11-27T05:05:06.027Z,2.27
2022-11-27T05:06:11.621Z,2.31
2022-11-27T05:07:06.132Z,2.25
2022-11-27T05:08:05.967Z,2.25
2022-11-27T05:09:05.952Z,2.24
2022-11-27T05:10:05.923Z,2.23
2022-11-27T05:11:05.909Z,2.25
2022-11-27T05:12:05.884Z,2.20
2022-11-27T05:13:05.868Z,2.18
2022-11-27T05:14:05.898Z,2.23
2022-11-27T05:15:05.824Z,2.18
2022-11-27T05:16:05.841Z,2.21
2022-11-27T05:17:05.786Z,2.30
2022-11-27T05:18:05.761Z,2.27
2022-11-27T05:19:05.743Z,2.35
2022-11-27T05:20:05.745Z,2.36
2022-11-27T05:21:05.700Z,2.36
2022-11-27T05:22:05.678Z,2.30
2022-11-27T05:23:05.737Z,2.21
2022-11-27T05:24:05.641Z,2.23
2022-11-27T05:25:05.659Z,2.18
2022-11-27T05:26:05.598Z,2.25
2022-11-27T05:27:05.585Z,2.24
2022-11-27T05:28:05.568Z,2.27
2022-11-27T05:29:05.556Z,2.35
2022-11-27T05:30:05.522Z,2.27
2022-11-27T05:31:05.580Z,2.30
2022-11-27T05:32:05.478Z,2.17
2022-11-27T05:33:05.456Z,2.24
2022-11-27T05:34:05.434Z,2.28
2022-11-27T05:35:05.429Z,2.36
2022-11-27T05:36:05.433Z,2.36
2022-11-27T05:37:05.376Z,2.45
2022-11-27T05:38:05.357Z,2.42
2022-11-27T05:39:05.411Z,2.41
2022-11-27T05:40:05.321Z,2.34
2022-11-27T05:41:05.322Z,2.24
2022-11-27T05:42:05.273Z,2.36
2022-11-27T05:43:05.256Z,2.36
2022-11-27T05:44:05.242Z,2.23
2022-11-27T05:45:05.269Z,2.31
2022-11-27T05:46:05.197Z,2.25
2022-11-27T05:47:05.208Z,2.23
2022-11-27T05:48:05.158Z,2.30
2022-11-27T05:49:05.143Z,2.23
2022-11-27T05:50:05.122Z,2.23
2022-11-27T05:51:05.127Z,2.25
2022-11-27T05:52:05.070Z,2.28
2022-11-27T05:53:05.052Z,2.27
2022-11-27T05:54:05.032Z,2.25
2022-11-27T05:55:05.087Z,2.18
2022-11-27T05:56:04.990Z,2.24
2022-11-27T05:57:05.015Z,2.28
2022-11-27T05:58:04.947Z,2.20
2022-11-27T05:59:04.930Z,2.31
2022-11-27T06:00:04.915Z,2.30
2022-11-27T06:01:04.887Z,2.25
2022-11-27T06:02:04.964Z,2.36
2022-11-27T06:03:05.009Z,2.38
2022-11-27T06:04:04.829Z,2.30
2022-11-27T06:05:04.810Z,2.35
2022-11-27T06:06:04.791Z,2.31
2022-11-27T06:07:04.768Z,2.31
2022-11-27T06:08:04.746Z,2.31
2022-11-27T06:09:09.327Z,2.21
2022-11-27T06:10:04.703Z,2.28
2022-11-27T06:11:04.765Z,2.23
2022-11-27T06:12:04.674Z,2.17
2022-11-27T06:13:04.645Z,2.23
2022-11-27T06:14:04.622Z,2.28
2022-11-27T06:15:04.651Z,2.23
2022-11-27T06:16:04.627Z,2.30
2022-11-27T06:17:04.562Z,2.25
2022-11-27T06:18:04.539Z,2.24
2022-11-27T06:19:04.521Z,2.23
2022-11-27T06:20:04.548Z,2.18
2022-11-27T06:21:04.484Z,2.12
2022-11-27T06:22:04.496Z,2.12
2022-11-27T06:23:04.442Z,2.09
2022-11-27T06:24:04.429Z,2.10
2022-11-27T06:25:04.404Z,2.12
2022-11-27T06:26:04.403Z,2.05
2022-11-27T06:27:04.441Z,1.98
2022-11-27T06:28:04.339Z,1.99
2022-11-27T06:29:04.319Z,2.03
2022-11-27T06:30:04.295Z,2.07
2022-11-27T06:31:04.369Z,1.99
2022-11-27T06:32:04.313Z,2.09
2022-11-27T06:33:04.238Z,2.00
2022-11-27T06:34:04.228Z,2.02
2022-11-27T06:35:04.200Z,1.88
2022-11-27T06:36:04.175Z,1.79
2022-11-27T06:37:05.400Z,1.81
2022-11-27T06:38:04.162Z,1.79
2022-11-27T06:39:04.120Z,1.86
2022-11-27T06:40:04.090Z,1.87
2022-11-27T06:41:04.077Z,1.90
2022-11-27T06:42:04.054Z,1.81
2022-11-27T06:43:04.158Z,1.88
2022-11-27T06:44:04.016Z,1.93
2022-11-27T06:45:03.997Z,1.98
2022-11-27T06:46:04.090Z,1.98
2022-11-27T06:47:03.954Z,1.98
2022-11-27T06:48:03.929Z,1.93
2022-11-27T06:49:03.912Z,1.88
2022-11-27T06:50:03.896Z,1.95
2022-11-27T06:51:03.871Z,2.00
2022-11-27T06:52:03.849Z,1.86
2022-11-27T06:53:03.836Z,1.87
2022-11-27T06:54:03.837Z,2.00
2022-11-27T06:55:03.788Z,1.95
2022-11-27T06:56:03.764Z,2.06
2022-11-27T06:57:03.754Z,2.12
2022-11-27T06:58:03.759Z,2.12
2022-11-27T06:59:03.782Z,2.16
2022-11-27T07:00:03.709Z,2.07
2022-11-27T07:01:03.695Z,2.12
2022-11-27T07:02:03.700Z,2.12
2022-11-27T07:03:03.634Z,2.03
2022-11-27T07:04:03.604Z,2.07
2022-11-27T07:05:03.632Z,2.07
2022-11-27T07:06:03.567Z,2.09
2022-11-27T07:07:03.545Z,2.10
2022-11-27T07:08:03.574Z,2.17
2022-11-27T07:09:03.508Z,2.20
2022-11-27T07:10:03.505Z,2.09
2022-11-27T07:11:03.462Z,2.14
2022-11-27T07:12:03.439Z,2.16
2022-11-27T07:13:03.449Z,2.06
2022-11-27T07:14:03.417Z,2.10
2022-11-27T07:15:04.569Z,2.03
2022-11-27T07:16:03.376Z,2.05
2022-11-27T07:17:03.339Z,2.02
2022-11-27T07:18:03.348Z,1.95
2022-11-27T07:19:03.297Z,1.99
2022-11-27T07:20:03.284Z,2.09
2022-11-27T07:21:03.255Z,2.07
2022-11-27T07:22:03.291Z,2.16
2022-11-27T07:23:03.214Z,2.14
2022-11-27T07:24:03.197Z,2.10
2022-11-27T07:25:03.178Z,2.10
2022-11-27T07:26:03.160Z,2.10
2022-11-27T07:27:03.133Z,2.10
2022-11-27T07:28:03.142Z,2.14
2022-11-27T07:29:03.095Z,2.12
2022-11-27T07:30:03.117Z,2.12
2022-11-27T07:31:03.138Z,1.99
2022-11-27T07:32:03.071Z,2.02
2022-11-27T07:33:03.014Z,2.05
2022-11-27T07:34:05.700Z,2.05
2022-11-27T07:35:02.994Z,2.14
2022-11-27T07:36:02.968Z,2.14
2022-11-27T07:37:02.928Z,2.16
2022-11-27T07:38:02.908Z,2.18
2022-11-27T07:39:02.893Z,2.17
2022-11-27T07:40:03.673Z,2.23
2022-11-27T07:41:02.863Z,2.25
2022-11-27T07:42:16.775Z,2.18
2022-11-27T07:43:02.809Z,2.21
2022-11-27T07:44:02.784Z,2.14
2022-11-27T07:45:02.762Z,2.23
2022-11-27T07:46:02.812Z,2.25
2022-11-27T07:47:02.803Z,2.39
2022-11-27T07:48:02.707Z,2.38
2022-11-27T07:49:02.762Z,2.34
2022-11-27T07:50:02.712Z,2.42
2022-11-27T07:51:02.653Z,2.35
2022-11-27T07:52:02.622Z,2.41
2022-11-27T07:53:02.601Z,2.49
2022-11-27T07:54:02.583Z,2.46
2022-11-27T07:55:02.586Z,2.53
2022-11-27T07:56:02.552Z,2.49
2022-11-27T07:57:02.532Z,2.56
2022-11-27T07:58:02.552Z,2.38
2022-11-27T07:59:02.482Z,2.54
2022-11-27T08:00:02.463Z,2.45
2022-11-27T08:01:02.519Z,2.49
2022-11-27T08:02:02.420Z,2.54
2022-11-27T08:03:02.485Z,2.49
2022-11-27T08:04:02.398Z,2.61
2022-11-27T08:05:02.431Z,2.56
2022-11-27T08:06:02.341Z,2.56
2022-11-27T08:07:02.325Z,2.57
2022-11-27T08:08:02.364Z,2.60
2022-11-27T08:09:02.282Z,2.66
2022-11-27T08:10:02.318Z,2.61
2022-11-27T08:11:02.238Z,2.57
2022-11-27T08:12:02.226Z,2.54
2022-11-27T08:13:02.195Z,2.53
2022-11-27T08:14:02.179Z,2.61
2022-11-27T08:15:02.157Z,2.63
2022-11-27T08:16:02.166Z,2.64
2022-11-27T08:17:02.119Z,2.67
2022-11-27T08:18:02.099Z,2.67
2022-11-27T08:19:07.959Z,2.69
2022-11-27T08:20:02.136Z,2.66
2022-11-27T08:21:02.047Z,2.66
2022-11-27T08:22:02.065Z,2.67
2022-11-27T08:23:03.252Z,2.66
2022-11-27T08:24:01.978Z,2.81
2022-11-27T08:25:01.988Z,2.85
2022-11-27T08:26:01.940Z,2.81
2022-11-27T08:27:01.917Z,2.77
2022-11-27T08:28:01.904Z,2.78
2022-11-27T08:29:01.879Z,2.85
2022-11-27T08:30:01.883Z,2.87
2022-11-27T08:31:01.836Z,2.90
2022-11-27T08:32:01.903Z,2.92
2022-11-27T08:33:01.798Z,2.92
2022-11-27T08:34:01.777Z,2.92
2022-11-27T08:35:01.790Z,2.93
2022-11-27T08:36:01.830Z,2.97
2022-11-27T08:37:01.782Z,3.11
2022-11-27T08:38:01.699Z,3.03
2022-11-27T08:39:01.680Z,3.14
2022-11-27T08:40:01.659Z,3.13
2022-11-27T08:41:01.636Z,3.24
2022-11-27T08:42:01.626Z,3.24
2022-11-27T08:43:01.713Z,3.28
2022-11-27T08:44:04.510Z,3.33
2022-11-27T08:45:01.559Z,3.39
2022-11-27T08:46:01.635Z,3.45
2022-11-27T08:47:01.552Z,3.54
2022-11-27T08:48:01.619Z,3.65
2022-11-27T08:49:01.479Z,3.54
2022-11-27T08:50:01.492Z,3.69
2022-11-27T08:51:01.442Z,3.69
2022-11-27T08:52:01.525Z,3.79
2022-11-27T08:53:01.403Z,3.83
2022-11-27T08:54:01.382Z,3.76
2022-11-27T08:55:01.367Z,3.90
2022-11-27T08:56:01.342Z,3.91
2022-11-27T08:57:01.329Z,4.04
2022-11-27T08:58:01.315Z,3.97
2022-11-27T08:59:01.291Z,4.11
2022-11-27T09:00:01.269Z,4.14
2022-11-27T09:01:01.339Z,4.12
2022-11-27T09:02:01.234Z,4.15
2022-11-27T09:03:01.206Z,4.29
2022-11-27T09:04:01.269Z,4.26
2022-11-27T09:05:01.186Z,4.22
2022-11-27T09:06:01.150Z,4.27
2022-11-27T09:07:01.128Z,4.33
2022-11-27T09:08:01.265Z,4.27
2022-11-27T09:09:01.098Z,4.27
2022-11-27T09:10:01.075Z,4.30
2022-11-27T09:11:01.049Z,4.33
2022-11-27T09:12:01.103Z,4.32
2022-11-27T09:13:01.010Z,4.41
2022-11-27T09:14:01.002Z,4.36
2022-11-27T09:15:00.976Z,4.37
2022-11-27T09:16:00.976Z,4.36
2022-11-27T09:17:01.014Z,4.41
2022-11-27T09:18:00.921Z,4.42
2022-11-27T09:19:00.894Z,4.37
2022-11-27T09:20:00.944Z,4.44
2022-11-27T09:21:00.887Z,4.48
2022-11-27T09:22:00.843Z,4.54
2022-11-27T09:23:00.830Z,4.50
2022-11-27T09:24:00.879Z,4.54
2022-11-27T09:25:00.780Z,4.51
2022-11-27T09:26:00.782Z,4.54
2022-11-27T09:27:00.770Z,4.52
2022-11-27T09:28:00.732Z,4.66
2022-11-27T09:29:00.708Z,4.60
2022-11-27T09:30:00.697Z,4.69
2022-11-27T09:31:00.679Z,4.66
2022-11-27T09:32:00.702Z,4.63
2022-11-27T09:33:00.630Z,4.73
2022-11-27T09:34:00.620Z,4.82
2022-11-27T09:35:00.657Z,4.86
2022-11-27T09:36:00.579Z,4.78
2022-11-27T09:37:00.567Z,4.80
2022-11-27T09:38:00.543Z,4.99
2022-11-27T09:39:00.549Z,4.94
2022-11-27T09:40:00.581Z,4.94
2022-11-27T09:41:03.067Z,5.00
2022-11-27T09:42:00.489Z,4.97
2022-11-27T09:43:00.444Z,5.04
2022-11-27T09:44:00.482Z,5.07
2022-11-27T09:45:00.398Z,5.04
2022-11-27T09:46:00.481Z,5.15
2022-11-27T09:47:00.366Z,5.07
2022-11-27T09:48:00.345Z,5.17
2022-11-27T09:49:00.327Z,5.18
2022-11-27T09:50:00.336Z,5.21
2022-11-27T09:51:00.318Z,5.22
2022-11-27T09:52:00.270Z,5.31
2022-11-27T09:53:00.252Z,5.24
2022-11-27T09:54:00.235Z,5.30
2022-11-27T09:55:00.221Z,5.35
2022-11-27T09:56:00.284Z,5.36
2022-11-27T09:57:00.210Z,5.36
2022-11-27T09:58:00.181Z,5.43
2022-11-27T09:59:00.136Z,5.46
2022-11-27T10:00:00.166Z,5.43
2022-11-27T10:01:00.100Z,5.43
2022-11-27T10:02:00.269Z,5.54
2022-11-27T10:03:00.266Z,5.53
2022-11-27T10:04:00.099Z,5.56
2022-11-27T10:05:15.848Z,5.58
2022-11-27T10:06:00.042Z,5.60
2022-11-27T10:06:59.991Z,5.63
2022-11-27T10:08:06.051Z,5.68
2022-11-27T10:08:59.948Z,5.72
2022-11-27T10:09:59.936Z,5.67
2022-11-27T10:10:59.962Z,5.68
2022-11-27T10:11:59.976Z,5.71
2022-11-27T10:12:59.888Z,5.71
2022-11-27T10:13:59.861Z,5.79
2022-11-27T10:14:59.857Z,5.75
2022-11-27T10:15:59.829Z,5.75
2022-11-27T10:16:59.928Z,5.79
2022-11-27T10:17:59.788Z,5.82
2022-11-27T10:18:59.782Z,5.78
2022-11-27T10:19:59.785Z,5.89
2022-11-27T10:20:59.729Z,5.97
2022-11-27T10:21:59.713Z,5.83
2022-11-27T10:22:59.741Z,5.93
2022-11-27T10:23:59.689Z,5.91
2022-11-27T10:24:59.662Z,5.90
2022-11-27T10:25:59.640Z,5.97
2022-11-27T10:26:59.627Z,6.01
2022-11-27T10:27:59.685Z,6.00
2022-11-27T10:28:59.657Z,6.00
2022-11-27T10:29:59.567Z,6.06
2022-11-27T10:30:59.550Z,6.04
2022-11-27T10:31:59.616Z,6.09
2022-11-27T10:32:59.587Z,6.09
2022-11-27T10:33:59.532Z,6.17
2022-11-27T10:34:59.474Z,6.17
2022-11-27T10:35:59.487Z,6.12
2022-11-27T10:36:59.448Z,6.30
2022-11-27T10:38:03.679Z,6.31
2022-11-27T10:38:59.430Z,6.28
2022-11-27T10:39:59.387Z,6.37
2022-11-27T10:40:59.369Z,6.41
2022-11-27T10:41:59.351Z,6.40
2022-11-27T10:42:59.336Z,6.52
2022-11-27T10:44:01.699Z,6.54
2022-11-27T10:44:59.295Z,6.59
2022-11-27T10:45:59.325Z,6.54
2022-11-27T10:46:59.254Z,6.67
2022-11-27T10:47:59.264Z,6.70
2022-11-27T10:48:59.220Z,6.76
2022-11-27T10:49:59.206Z,6.74
2022-11-27T10:50:59.211Z,6.76
2022-11-27T10:51:59.166Z,6.77
2022-11-27T10:52:59.149Z,6.85
2022-11-27T10:53:59.135Z,6.80
2022-11-27T10:54:59.133Z,6.91
2022-11-27T10:55:59.124Z,6.97
2022-11-27T10:56:59.133Z,6.97
2022-11-27T10:57:59.088Z,6.91
2022-11-27T10:58:59.052Z,7.06
2022-11-27T10:59:59.115Z,7.10
2022-11-27T11:00:59.043Z,7.12
2022-11-27T11:01:59.050Z,7.17
2022-11-27T11:02:58.974Z,6.99
2022-11-27T11:03:58.958Z,7.03
2022-11-27T11:05:30.024Z,7.03
2022-11-27T11:06:23.948Z,7.07
2022-11-27T11:06:58.926Z,7.12
2022-11-27T11:07:58.953Z,7.17
2022-11-27T11:09:01.450Z,7.23
2022-11-27T11:09:58.851Z,7.10
2022-11-27T11:10:58.837Z,7.20
2022-11-27T11:11:58.812Z,7.17
2022-11-27T11:12:58.856Z,7.10
2022-11-27T11:13:58.781Z,7.13
2022-11-27T11:14:58.758Z,7.21
2022-11-27T11:15:58.845Z,7.21
2022-11-27T11:16:58.773Z,7.23
2022-11-27T11:17:58.815Z,7.16
2022-11-27T11:18:58.702Z,7.30
2022-11-27T11:19:58.689Z,7.25
2022-11-27T11:20:58.655Z,7.21
2022-11-27T11:21:58.635Z,7.21
2022-11-27T11:22:58.627Z,7.17
2022-11-27T11:23:58.665Z,7.24
2022-11-27T11:24:58.583Z,7.16
2022-11-27T11:25:58.567Z,7.16
2022-11-27T11:26:58.547Z,7.23
2022-11-27T11:27:58.532Z,7.15
2022-11-27T11:28:58.512Z,7.15
2022-11-27T11:29:58.524Z,7.23
2022-11-27T11:30:58.480Z,7.17
2022-11-27T11:31:58.556Z,7.16
2022-11-27T11:32:58.450Z,7.15
2022-11-27T11:33:58.426Z,7.23
2022-11-27T11:35:01.198Z,7.21
2022-11-27T11:35:58.391Z,7.24
2022-11-27T11:36:58.376Z,7.16
2022-11-27T11:37:58.360Z,7.23
2022-11-27T11:38:58.340Z,7.27
2022-11-27T11:39:58.318Z,7.25
2022-11-27T11:40:58.337Z,7.25
2022-11-27T11:41:58.287Z,7.24
2022-11-27T11:42:58.279Z,7.30
2022-11-27T11:43:58.308Z,7.28
2022-11-27T11:44:58.235Z,7.23
2022-11-27T11:45:58.261Z,7.25
2022-11-27T11:46:58.199Z,7.25
2022-11-27T11:47:58.264Z,7.23
2022-11-27T11:48:58.168Z,7.28
2022-11-27T11:49:58.178Z,7.15
2022-11-27T11:50:58.128Z,7.17
2022-11-27T11:51:58.123Z,7.16
2022-11-27T11:52:58.095Z,7.16
2022-11-27T11:53:58.074Z,7.27
2022-11-27T11:54:58.065Z,7.23
2022-11-27T11:55:58.040Z,7.17
2022-11-27T11:56:58.029Z,7.23
2022-11-27T11:57:58.010Z,7.32
2022-11-27T11:58:57.996Z,7.32
2022-11-27T11:59:57.967Z,7.35
2022-11-27T12:01:25.360Z,7.28
2022-11-27T12:01:58.042Z,7.27
2022-11-27T12:02:57.919Z,7.28
2022-11-27T12:03:58.036Z,7.31
2022-11-27T12:04:57.948Z,7.28
2022-11-27T12:05:57.861Z,7.32
2022-11-27T12:06:57.848Z,7.37
2022-11-27T12:07:57.891Z,7.40
2022-11-27T12:08:57.813Z,7.34
2022-11-27T12:09:57.796Z,7.42
2022-11-27T12:10:57.789Z,7.45
2022-11-27T12:11:57.764Z,7.35
2022-11-27T12:12:57.761Z,7.42
2022-11-27T12:13:57.721Z,7.32
2022-11-27T12:14:57.706Z,7.45
2022-11-27T12:15:57.688Z,7.43
2022-11-27T12:16:57.692Z,7.32
2022-11-27T12:17:57.657Z,7.39
2022-11-27T12:18:57.635Z,7.39
2022-11-27T12:19:57.701Z,7.39
2022-11-27T12:20:57.611Z,7.42
2022-11-27T12:21:57.585Z,7.45
2022-11-27T12:22:57.605Z,7.49
2022-11-27T12:23:57.549Z,7.35
2022-11-27T12:24:57.542Z,7.52
2022-11-27T12:25:57.513Z,7.53
2022-11-27T12:26:57.516Z,7.43
2022-11-27T12:27:57.486Z,7.48
2022-11-27T12:28:59.438Z,7.46
2022-11-27T12:29:57.444Z,7.50
2022-11-27T12:30:57.509Z,7.46
2022-11-27T12:31:57.447Z,7.43
2022-11-27T12:32:57.396Z,7.49
2022-11-27T12:33:57.378Z,7.46
2022-11-27T12:34:57.385Z,7.46
2022-11-27T12:35:57.417Z,7.49
2022-11-27T12:36:57.390Z,7.46
2022-11-27T12:37:57.311Z,7.45
2022-11-27T12:38:57.299Z,7.45
2022-11-27T12:39:57.288Z,7.40
2022-11-27T12:40:57.262Z,7.40
2022-11-27T12:41:57.245Z,7.35
2022-11-27T12:42:57.306Z,7.39
2022-11-27T12:43:57.203Z,7.39
2022-11-27T12:44:57.196Z,7.42
2022-11-27T12:45:57.229Z,7.43
2022-11-27T12:46:57.154Z,7.39
2022-11-27T12:47:57.134Z,7.50
2022-11-27T12:48:57.115Z,7.49
2022-11-27T12:49:57.095Z,7.48
2022-11-27T12:50:57.098Z,7.49
2022-11-27T12:51:57.132Z,7.40
2022-11-27T12:52:57.044Z,7.46
2022-11-27T12:53:57.063Z,7.37
2022-11-27T12:54:57.010Z,7.34
2022-11-27T12:55:56.987Z,7.37
2022-11-27T12:56:56.973Z,7.37
2022-11-27T12:57:56.954Z,7.37
2022-11-27T12:58:56.973Z,7.43
2022-11-27T12:59:56.919Z,7.48
2022-11-27T13:00:57.000Z,7.37
2022-11-27T13:01:56.995Z,7.42
2022-11-27T13:02:56.971Z,7.48
2022-11-27T13:03:56.848Z,7.43
2022-11-27T13:04:56.877Z,7.52
2022-11-27T13:05:56.817Z,7.37
2022-11-27T13:06:56.803Z,7.49
2022-11-27T13:07:56.959Z,7.45
2022-11-27T13:08:56.772Z,7.48
2022-11-27T13:09:56.750Z,7.43
2022-11-27T13:10:56.739Z,7.45
2022-11-27T13:11:56.722Z,7.48
2022-11-27T13:12:56.692Z,7.48
2022-11-27T13:13:56.674Z,7.49
2022-11-27T13:14:56.687Z,7.49
2022-11-27T13:15:56.789Z,7.43
2022-11-27T13:16:56.683Z,7.49
2022-11-27T13:17:56.620Z,7.49